Terminal Aerodrome Forecast
Issued by NWS Wilmington, OH

Current Version | Previous Version | Text Only | Print | Product List | Glossary Off
Versions: 1 2 3 4 5 6 7 8 9 10 11 12 13 14 15 16 17 18 19 20 21 22

000
FTUS41 KILN 312300
TAFCVG
TAF
KCVG 312337Z 0100/0206 22003KT P6SM BKN110
     FM010100 VRB03KT P6SM FEW110
      TEMPO 0109/0112 4SM BR
     FM011400 10004KT P6SM SCT040
     FM011600 08005KT P6SM BKN040
     FM020000 VRB03KT P6SM SCT040 BKN110=

USA.gov is the U.S. government's official web portal to all federal, state and local government web resources and services.